Time;durP1;ratioP1;P1;durP2;ratioP2;P2;SDS_P1;SDS_P2;PMS_P1;PMS_P2;Temp;Humidity;BMP_temperature;BMP_pressure;BME280_temperature;BME280_humidity;BME280_pressure;Samples;Min_cycle;Max_cycle;Signal;HPM_P1;HPM_P2
2023/03/30 15:14:58;;;;;;;9.90;5.13;;;17.00;99.90;;;;;;5843530;23;20244;-92
2023/03/30 15:17:27;;;;;;;9.00;4.82;;;16.80;99.90;;;;;;4873078;29;20195;-92
2023/03/30 15:19:56;;;;;;;8.10;4.53;;;16.80;99.90;;;;;;4883280;29;20195;-94
2023/03/30 15:22:28;;;;;;;7.75;4.25;;;16.80;99.90;;;;;;4883135;29;20198;-91
2023/03/30 15:24:59;;;;;;;15.15;8.10;;;16.80;99.90;;;;;;4883335;29;20202;-91
2023/03/30 15:27:26;;;;;;;11.57;4.78;;;16.70;99.90;;;;;;4868071;29;20716;-92
2023/03/30 15:29:56;;;;;;;9.25;4.90;;;16.60;99.90;;;;;;4882090;29;20284;-92
2023/03/30 15:32:29;;;;;;;10.13;4.88;;;16.40;99.90;;;;;;4882828;29;20203;-91
2023/03/30 15:35:05;;;;;;;9.98;5.18;;;16.20;99.90;;;;;;4882624;29;20199;-90
2023/03/30 15:37:34;;;;;;;7.03;4.45;;;16.10;99.90;;;;;;4876665;29;20211;-90
2023/03/30 15:40:01;;;;;;;12.15;7.60;;;15.90;99.90;;;;;;4882547;29;20210;-90
2023/03/30 15:42:30;;;;;;;13.73;4.63;;;15.80;99.90;;;;;;4882364;29;20202;-90
2023/03/30 15:45:06;;;;;;;9.82;5.68;;;15.60;99.90;;;;;;4882169;29;20204;-91
2023/03/30 15:47:34;;;;;;;9.02;5.40;;;15.50;1.00;;;;;;4882445;29;20689;-91
2023/03/30 15:50:00;;;;;;;12.77;5.60;;;15.50;1.00;;;;;;4882127;29;20216;-89
2023/03/30 15:52:34;;;;;;;12.25;6.53;;;15.40;1.00;;;;;;4882417;29;20285;-90
2023/03/30 15:55:06;;;;;;;15.45;7.63;;;15.40;1.00;;;;;;4882128;29;20200;-91
2023/03/30 15:57:33;;;;;;;18.05;7.25;;;15.30;1.00;;;;;;4870076;29;20240;-93
2023/03/30 16:00:05;;;;;;;13.07;5.97;;;15.30;1.00;;;;;;4873072;29;20206;-91
2023/03/30 16:02:40;;;;;;;15.63;7.80;;;15.20;1.00;;;;;;4872998;29;20213;-90
2023/03/30 16:05:15;;;;;;;23.15;12.73;;;15.20;1.00;;;;;;4867452;29;20202;-90
2023/03/30 16:07:42;;;;;;;22.40;12.65;;;15.20;1.00;;;;;;4872770;29;20261;-91
2023/03/30 16:10:13;;;;;;;24.70;12.27;;;15.10;1.00;;;;;;4879551;29;20213;-91
2023/03/30 16:12:42;;;;;;;13.75;6.60;;;15.10;1.00;;;;;;4875544;29;20199;-91
2023/03/30 16:15:14;;;;;;;1.88;1.20;;;15.00;1.00;;;;;;4874912;29;20594;-91
2023/03/30 16:17:40;;;;;;;4.35;1.33;;;14.70;99.90;;;;;;4896817;29;20210;-92
2023/03/30 16:20:17;;;;;;;5.77;1.53;;;14.30;99.90;;;;;;4899585;29;20209;-92
2023/03/30 16:22:46;;;;;;;5.20;1.53;;;13.70;1.00;;;;;;4896238;29;20231;-91
2023/03/30 16:25:13;;;;;;;3.40;1.30;;;13.10;1.00;;;;;;4890217;29;20216;-91
2023/03/30 16:27:40;;;;;;;5.47;1.30;;;12.70;99.90;;;;;;4885019;29;20212;-90
2023/03/30 16:30:17;;;;;;;1.83;1.20;;;12.40;1.00;;;;;;4896434;29;20202;-92
2023/03/30 16:32:44;;;;;;;5.97;1.23;;;12.20;1.00;;;;;;4889334;29;21946;-92
2023/03/30 16:35:11;;;;;;;2.70;1.23;;;12.00;99.90;;;;;;4893125;29;20199;-91
2023/03/30 16:37:38;;;;;;;119.20;68.03;;;11.90;99.90;;;;;;4897389;29;20218;-93
2023/03/30 16:40:18;;;;;;;6.67;4.27;;;11.80;1.00;;;;;;4898239;29;20297;-93
2023/03/30 16:42:45;;;;;;;3.03;1.60;;;11.70;1.00;;;;;;4900552;29;20206;-92
2023/03/30 16:45:13;;;;;;;4.70;1.97;;;11.70;1.00;;;;;;4900672;29;20195;-91
2023/03/30 16:47:39;;;;;;;6.07;2.03;;;11.70;99.90;;;;;;4900610;29;20216;-91
2023/03/30 16:50:18;;;;;;;6.90;1.87;;;11.60;99.90;;;;;;4900601;29;20211;-92
2023/03/30 16:52:44;;;;;;;6.13;1.77;;;11.50;1.00;;;;;;4900256;29;20207;-91
2023/03/30 16:55:11;;;;;;;3.33;1.47;;;11.40;1.00;;;;;;4900435;29;20203;-93
2023/03/30 16:57:38;;;;;;;6.97;3.00;;;11.40;1.00;;;;;;4886008;29;20566;-91
2023/03/30 17:00:17;;;;;;;11.97;6.00;;;11.40;1.00;;;;;;4899659;29;20205;-90
2023/03/30 17:02:44;;;;;;;9.07;5.10;;;11.40;69.10;;;;;;4897399;29;20208;-91
2023/03/30 17:05:11;;;;;;;5.73;1.77;;;11.40;31.90;;;;;;4885389;29;20301;-91
2023/03/30 17:07:38;;;;;;;6.00;4.97;;;11.40;99.90;;;;;;4890254;29;20212;-91
2023/03/30 17:10:14;;;;;;;9.27;6.73;;;11.40;99.90;;;;;;4899593;29;20198;-91
2023/03/30 17:12:41;;;;;;;12.63;7.23;;;11.50;99.90;;;;;;4899829;29;20677;-90
2023/03/30 17:15:09;;;;;;;10.03;6.90;;;11.50;99.90;;;;;;4898152;29;20239;-90
2023/03/30 17:17:37;;;;;;;10.23;5.63;;;11.50;1.00;;;;;;4896650;29;20261;-89
2023/03/30 17:20:18;;;;;;;6.03;4.60;;;11.50;1.00;;;;;;4891095;29;20714;-89
2023/03/30 17:22:45;;;;;;;12.53;3.80;;;11.50;1.00;;;;;;4898346;29;20206;-90
2023/03/30 17:25:13;;;;;;;5.03;3.50;;;11.60;1.00;;;;;;4888069;29;20222;-90
2023/03/30 17:27:40;;;;;;;5.33;3.77;;;11.50;1.00;;;;;;4898661;29;20274;-90
2023/03/30 17:30:16;;;;;;;5.43;3.07;;;11.50;1.00;;;;;;4899559;29;20201;-90
2023/03/30 17:32:45;;;;;;;12.47;8.07;;;11.50;99.90;;;;;;4895656;29;20258;-90
2023/03/30 17:35:11;;;;;;;11.10;5.53;;;11.40;99.90;;;;;;4896206;29;20197;-90
2023/03/30 17:37:39;;;;;;;5.43;4.00;;;11.40;99.90;;;;;;4891823;29;20211;-90
2023/03/30 17:40:17;;;;;;;12.47;7.93;;;11.40;1.00;;;;;;4899282;29;20693;-91
2023/03/30 17:42:44;;;;;;;18.60;12.43;;;11.40;1.00;;;;;;4897866;29;20207;-90
2023/03/30 17:45:12;;;;;;;15.60;11.20;;;11.40;1.00;;;;;;4880778;29;20222;-91
2023/03/30 17:47:38;;;;;;;15.83;9.93;;;11.40;1.00;;;;;;4884621;29;20208;-90
2023/03/30 17:50:18;;;;;;;16.40;10.37;;;11.40;1.00;;;;;;4891582;29;20561;-89
2023/03/30 17:52:45;;;;;;;18.70;14.07;;;11.30;45.30;;;;;;4895383;29;20204;-90
2023/03/30 17:55:12;;;;;;;10.33;8.23;;;11.30;40.20;;;;;;4895438;29;20192;-90
2023/03/30 17:57:39;;;;;;;13.20;8.20;;;11.30;99.90;;;;;;4897706;29;20239;-90
2023/03/30 18:00:15;;;;;;;10.83;8.57;;;11.30;99.90;;;;;;4886983;29;20283;-90
2023/03/30 18:02:41;;;;;;;14.97;7.77;;;11.30;99.90;;;;;;4899305;29;20647;-90
2023/03/30 18:05:09;;;;;;;11.37;6.93;;;11.30;99.90;;;;;;4890784;29;20221;-91
2023/03/30 18:07:37;;;;;;;15.93;9.30;;;11.30;1.00;;;;;;4898809;29;20236;-90
2023/03/30 18:10:18;;;;;;;14.97;9.53;;;11.20;1.00;;;;;;4898689;29;20566;-90
2023/03/30 18:12:45;;;;;;;16.77;10.90;;;11.20;1.00;;;;;;4897309;29;20668;-90
2023/03/30 18:15:12;;;;;;;12.00;8.30;;;11.20;1.00;;;;;;4887794;29;20235;-90
2023/03/30 18:17:38;;;;;;;11.77;8.67;;;11.20;1.00;;;;;;4897026;29;20216;-89
2023/03/30 18:20:20;;;;;;;12.03;7.43;;;11.20;1.00;;;;;;4898413;29;20665;-89
2023/03/30 18:22:49;;;;;;;10.77;8.37;;;11.20;1.00;;;;;;4882734;29;20200;-90
2023/03/30 18:25:17;;;;;;;12.43;8.03;;;11.20;1.00;;;;;;4885592;29;20232;-90
2023/03/30 18:27:45;;;;;;;11.93;8.73;;;11.10;1.00;;;;;;4900770;29;20204;-90
2023/03/30 18:30:25;;;;;;;11.53;8.50;;;11.10;1.00;;;;;;4895197;29;20283;-90
2023/03/30 18:32:52;;;;;;;11.40;8.07;;;11.10;1.00;;;;;;4894275;29;20292;-90
2023/03/30 18:35:20;;;;;;;15.57;11.03;;;11.10;1.00;;;;;;4897255;29;20226;-90
2023/03/30 18:37:49;;;;;;;23.03;14.47;;;11.10;1.00;;;;;;4892550;29;20689;-90
2023/03/30 18:40:19;;;;;;;25.80;16.90;;;11.10;1.00;;;;;;4896898;29;20214;-90
2023/03/30 18:42:46;;;;;;;27.00;16.27;;;11.00;1.00;;;;;;4898654;29;20272;-90
2023/03/30 18:45:19;;;;;;;26.03;16.50;;;11.10;1.00;;;;;;4895935;29;20701;-89
2023/03/30 18:47:46;;;;;;;22.63;12.63;;;11.10;1.00;;;;;;4901941;29;20209;-89
2023/03/30 18:50:16;;;;;;;28.73;12.47;;;11.10;1.00;;;;;;4904385;29;20212;-90
2023/03/30 18:52:43;;;;;;;15.77;9.97;;;11.00;1.00;;;;;;4894090;29;20215;-90
2023/03/30 18:55:13;;;;;;;12.63;9.00;;;11.10;1.00;;;;;;4903379;29;20201;-91
2023/03/30 18:57:40;;;;;;;16.77;10.10;;;11.00;1.00;;;;;;4903577;29;20208;-90
2023/03/30 19:00:28;;;;;;;20.23;11.10;;;10.90;1.00;;;;;;4894931;29;20279;-91
2023/03/30 19:02:56;;;;;;;19.27;10.47;;;10.80;1.00;;;;;;4897121;29;20227;-90
2023/03/30 19:05:25;;;;;;;17.43;9.93;;;10.70;1.00;;;;;;4900815;29;20228;-90
2023/03/30 19:07:52;;;;;;;20.03;11.67;;;10.60;99.90;;;;;;4901361;29;20284;-90
2023/03/30 19:10:25;;;;;;;19.73;11.80;;;10.50;99.90;;;;;;4904057;29;20207;-89
2023/03/30 19:12:53;;;;;;;16.13;10.27;;;10.40;1.00;;;;;;4903582;29;20741;-90
2023/03/30 19:15:23;;;;;;;14.60;9.17;;;10.30;1.00;;;;;;4903409;29;20235;-91
2023/03/30 19:17:50;;;;;;;14.50;9.93;;;10.20;1.00;;;;;;4899805;29;20212;-90
2023/03/30 19:20:18;;;;;;;17.57;9.97;;;10.20;1.00;;;;;;4901199;29;20214;-89
2023/03/30 19:22:46;;;;;;;14.17;9.77;;;10.20;1.00;;;;;;4905820;29;20207;-90
2023/03/30 19:25:14;;;;;;;15.30;9.33;;;10.20;1.00;;;;;;4897968;29;20697;-90
2023/03/30 19:27:43;;;;;;;14.53;9.23;;;10.20;1.00;;;;;;4900751;29;20212;-89
2023/03/30 19:30:12;;;;;;;12.77;9.23;;;10.10;1.00;;;;;;4902465;29;20202;-89
2023/03/30 19:32:39;;;;;;;13.07;9.37;;;10.10;1.00;;;;;;4890681;29;20211;-91
2023/03/30 19:35:07;;;;;;;11.10;8.53;;;10.10;1.00;;;;;;4896633;29;20226;-91
2023/03/30 19:37:34;;;;;;;14.43;9.37;;;10.10;1.00;;;;;;4895200;29;20212;-90
2023/03/30 19:40:01;;;;;;;15.50;9.57;;;10.10;1.00;;;;;;4896533;29;20198;-90
2023/03/30 19:42:31;;;;;;;13.67;8.80;;;10.10;1.00;;;;;;4903199;29;20274;-90
2023/03/30 19:45:00;;;;;;;15.83;9.70;;;10.10;1.00;;;;;;4900672;29;20254;-91
2023/03/30 19:47:29;;;;;;;16.73;9.50;;;10.10;1.00;;;;;;4895514;29;20214;-90
2023/03/30 19:49:56;;;;;;;16.10;9.87;;;10.00;1.00;;;;;;4894838;29;20206;-90
2023/03/30 19:52:23;;;;;;;16.47;9.37;;;10.10;99.90;;;;;;4881657;29;20214;-90
2023/03/30 19:54:51;;;;;;;14.90;9.33;;;10.10;99.90;;;;;;4892421;29;20195;-89
